createdAt,value
2022-09-16T00:04:05.092Z,58.68
2022-09-16T00:09:07.897Z,57.27
2022-09-16T00:14:10.726Z,63.69
2022-09-16T00:19:13.555Z,60.34
2022-09-16T00:24:16.968Z,60.49
2022-09-16T00:29:20.741Z,63.83
2022-09-16T00:34:23.592Z,59.51
2022-09-16T00:39:26.401Z,64.41
2022-09-16T00:44:56.087Z,61.06
2022-09-16T00:50:13.721Z,63.41
2022-09-16T00:55:21.651Z,58.41
2022-09-16T01:00:24.416Z,64.26
2022-09-16T01:05:28.323Z,59.76
2022-09-16T01:10:31.878Z,61.59
2022-09-16T01:16:01.422Z,62.25
2022-09-16T01:21:18.549Z,59.47
2022-09-16T01:27:09.100Z,64.25
2022-09-16T01:32:35.454Z,60.26
2022-09-16T01:37:53.111Z,63.50
2022-09-16T01:43:08.586Z,59.08
2022-09-16T01:48:31.404Z,63.54
2022-09-16T01:53:55.124Z,60.25
2022-09-16T01:59:08.436Z,62.07
2022-09-16T02:04:17.954Z,61.03
2022-09-16T02:09:26.281Z,61.07
2022-09-16T02:14:32.141Z,61.80
2022-09-16T02:19:59.286Z,61.30
2022-09-16T02:25:05.184Z,61.06
2022-09-16T02:30:11.379Z,61.56
2022-09-16T02:35:19.161Z,62.30
2022-09-16T02:40:31.905Z,59.33
2022-09-16T02:46:11.015Z,63.47
2022-09-16T02:51:50.034Z,58.66
2022-09-16T02:56:55.703Z,63.19
2022-09-16T03:02:01.196Z,60.38
2022-09-16T03:07:08.044Z,62.09
2022-09-16T03:12:20.053Z,62.15
2022-09-16T03:17:47.206Z,60.55
2022-09-16T03:23:12.987Z,63.32
2022-09-16T03:28:24.305Z,59.52
2022-09-16T03:33:39.969Z,63.92
2022-09-16T03:38:44.119Z,59.77
2022-09-16T03:43:55.076Z,60.84
2022-09-16T03:48:58.897Z,62.30
2022-09-16T03:54:01.801Z,60.09
2022-09-16T03:59:04.579Z,63.92
2022-09-16T04:04:07.740Z,60.08
2022-09-16T04:09:12.521Z,61.64
2022-09-16T04:14:15.788Z,63.48
2022-09-16T04:19:19.014Z,60.26
2022-09-16T04:24:21.704Z,64.48
2022-09-16T04:29:24.504Z,60.50
2022-09-16T04:34:27.324Z,61.84
2022-09-16T04:39:30.476Z,61.61
2022-09-16T04:44:33.253Z,60.39
2022-09-16T04:49:36.054Z,62.38
2022-09-16T04:54:38.889Z,61.79
2022-09-16T04:59:41.670Z,59.75
2022-09-16T05:04:44.792Z,63.82
2022-09-16T05:09:47.645Z,58.77
2022-09-16T05:14:50.419Z,63.74
2022-09-16T05:19:53.239Z,61.27
2022-09-16T05:24:56.017Z,60.68
2022-09-16T05:29:58.878Z,63.57
2022-09-16T05:35:01.710Z,60.92
2022-09-16T05:40:04.960Z,62.20
2022-09-16T05:45:07.887Z,60.99
2022-09-16T05:50:16.557Z,62.53
2022-09-16T05:55:21.678Z,60.09
2022-09-16T06:00:32.516Z,59.71
2022-09-16T06:05:35.318Z,63.37
2022-09-16T06:10:40.325Z,60.15
2022-09-16T06:15:51.548Z,61.52
2022-09-16T06:20:54.804Z,60.34
2022-09-16T06:26:06.119Z,61.97
2022-09-16T06:31:22.236Z,60.40
2022-09-16T06:36:31.070Z,61.17
2022-09-16T06:41:34.818Z,58.72
2022-09-16T06:46:37.740Z,62.14
2022-09-16T06:51:40.672Z,60.08
2022-09-16T06:56:43.827Z,61.02
2022-09-16T07:01:46.664Z,60.91
2022-09-16T07:07:08.828Z,59.62
2022-09-16T07:12:19.377Z,60.89
2022-09-16T07:17:26.143Z,59.93
2022-09-16T07:22:32.461Z,61.26
2022-09-16T07:27:35.322Z,58.67
2022-09-16T07:32:38.644Z,61.69
2022-09-16T07:37:42.728Z,58.56
2022-09-16T07:42:46.636Z,61.00
2022-09-16T07:47:53.305Z,59.01
2022-09-16T07:52:56.950Z,59.93
2022-09-16T07:57:59.846Z,62.09
2022-09-16T08:03:02.748Z,57.33
2022-09-16T08:08:05.740Z,59.79
2022-09-16T08:13:09.065Z,60.23
2022-09-16T08:18:11.873Z,59.38
2022-09-16T08:23:14.797Z,61.44
2022-09-16T08:28:17.769Z,61.38
2022-09-16T08:33:23.210Z,61.49
2022-09-16T08:38:26.546Z,61.12
2022-09-16T08:43:38.377Z,60.63
2022-09-16T08:49:03.546Z,60.35
2022-09-16T08:54:47.026Z,60.31
2022-09-16T08:59:58.647Z,60.75
2022-09-16T09:05:03.778Z,60.43
2022-09-16T09:10:25.033Z,59.68
2022-09-16T09:16:00.981Z,57.77
2022-09-16T09:21:20.155Z,58.62
2022-09-16T09:26:38.016Z,56.69
2022-09-16T09:31:41.430Z,56.81
2022-09-16T09:36:44.323Z,56.00
2022-09-16T09:41:51.552Z,55.96
2022-09-16T09:47:05.593Z,54.46
2022-09-16T09:52:24.246Z,54.35
2022-09-16T09:57:51.799Z,54.62
2022-09-16T10:03:21.529Z,54.27
2022-09-16T10:08:44.783Z,55.00
2022-09-16T10:19:25.829Z,53.65
2022-09-16T10:24:45.767Z,53.17
2022-09-16T10:30:12.957Z,53.17
2022-09-16T10:35:42.395Z,53.27
2022-09-16T10:40:58.104Z,52.11
2022-09-16T10:46:04.512Z,52.11
2022-09-16T10:51:24.783Z,52.54
2022-09-16T10:56:46.623Z,51.66
2022-09-16T11:02:37.567Z,51.27
2022-09-16T11:07:56.161Z,51.26
2022-09-16T11:13:08.117Z,51.69
2022-09-16T11:18:26.383Z,51.81
2022-09-16T11:23:43.031Z,51.13
2022-09-16T11:29:26.753Z,50.84
2022-09-16T11:34:50.732Z,51.41
2022-09-16T11:40:00.079Z,50.86
2022-09-16T11:45:40.356Z,51.03
2022-09-16T11:50:53.039Z,49.80
2022-09-16T11:56:09.386Z,49.27
2022-09-16T12:01:26.387Z,49.57
2022-09-16T12:06:37.080Z,50.09
2022-09-16T12:11:46.007Z,49.52
2022-09-16T12:16:48.802Z,49.26
2022-09-16T12:21:58.428Z,49.10
2022-09-16T12:27:07.305Z,49.56
2022-09-16T12:32:15.902Z,50.42
2022-09-16T12:37:46.032Z,50.96
2022-09-16T12:43:08.005Z,51.58
2022-09-16T12:48:17.084Z,52.34
2022-09-16T12:53:52.061Z,52.90
2022-09-16T12:59:25.680Z,53.16
2022-09-16T13:04:39.390Z,52.94
2022-09-16T13:09:50.358Z,52.69
2022-09-16T13:14:57.084Z,52.07
2022-09-16T13:20:15.589Z,52.29
2022-09-16T13:25:33.639Z,51.54
2022-09-16T13:30:38.463Z,50.61
2022-09-16T13:35:43.859Z,49.64
2022-09-16T13:41:01.787Z,50.14
2022-09-16T13:46:18.728Z,49.31
2022-09-16T13:51:22.964Z,48.21
2022-09-16T13:56:34.087Z,48.35
2022-09-16T14:02:09.428Z,47.68
2022-09-16T14:07:31.114Z,48.49
2022-09-16T14:12:39.862Z,48.35
2022-09-16T14:17:51.121Z,47.91
2022-09-16T14:23:15.703Z,46.87
2022-09-16T14:28:27.912Z,46.84
2022-09-16T14:33:35.986Z,46.64
2022-09-16T14:39:14.581Z,44.00
2022-09-16T14:44:22.813Z,41.37
2022-09-16T14:49:26.144Z,41.44
2022-09-16T14:54:29.512Z,40.25
2022-09-16T14:59:38.462Z,41.11
2022-09-16T15:04:46.876Z,41.99
2022-09-16T15:09:58.792Z,42.95
2022-09-16T15:15:10.533Z,43.28
2022-09-16T15:20:22.899Z,44.58
2022-09-16T15:25:30.027Z,45.88
2022-09-16T15:30:33.337Z,47.01
2022-09-16T15:35:36.244Z,47.84
2022-09-16T15:40:39.937Z,48.38
2022-09-16T15:45:44.861Z,48.79
2022-09-16T15:50:54.645Z,48.22
2022-09-16T15:56:00.314Z,47.52
2022-09-16T16:01:03.369Z,45.94
2022-09-16T16:06:06.589Z,46.48
2022-09-16T16:11:12.713Z,47.13
2022-09-16T16:16:16.752Z,47.69
2022-09-16T16:21:21.323Z,48.69
2022-09-16T16:26:24.723Z,49.74
2022-09-16T16:31:27.944Z,50.60
2022-09-16T16:36:30.810Z,51.26
2022-09-16T16:41:33.570Z,51.76
2022-09-16T16:46:36.426Z,52.11
2022-09-16T16:51:39.234Z,52.67
2022-09-16T16:56:42.548Z,53.35
2022-09-16T17:01:49.006Z,53.93
2022-09-16T17:07:14.436Z,54.20
2022-09-16T17:12:14.909Z,54.73
2022-09-16T17:17:18.044Z,55.03
2022-09-16T17:22:20.755Z,55.51
2022-09-16T17:27:27.002Z,56.00
2022-09-16T17:32:29.766Z,56.44
2022-09-16T17:37:32.636Z,56.61
2022-09-16T17:42:35.460Z,57.12
2022-09-16T17:47:38.422Z,57.82
2022-09-16T17:52:41.402Z,58.13
2022-09-16T17:57:44.095Z,58.46
2022-09-16T18:02:46.910Z,59.18
2022-09-16T18:07:49.748Z,59.28
2022-09-16T18:12:52.817Z,59.80
2022-09-16T18:17:56.263Z,60.33
2022-09-16T18:22:59.094Z,60.59
2022-09-16T18:28:01.903Z,60.66
2022-09-16T18:33:04.777Z,60.74
2022-09-16T18:38:11.441Z,60.86
2022-09-16T18:43:14.343Z,60.97
2022-09-16T18:48:17.082Z,61.30
2022-09-16T18:53:19.852Z,61.62
2022-09-16T18:58:22.860Z,61.99
2022-09-16T19:03:25.677Z,61.69
2022-09-16T19:08:28.454Z,61.70
2022-09-16T19:13:33.767Z,61.81
2022-09-16T19:18:38.561Z,62.03
2022-09-16T19:23:43.475Z,59.44
2022-09-16T19:28:46.323Z,57.07
2022-09-16T19:33:49.475Z,59.40
2022-09-16T19:38:52.612Z,60.71
2022-09-16T19:44:05.839Z,61.90
2022-09-16T19:49:13.990Z,63.04
2022-09-16T19:54:17.975Z,54.17
2022-09-16T19:59:21.583Z,56.77
2022-09-16T20:04:24.730Z,58.87
2022-09-16T20:09:27.364Z,60.37
2022-09-16T20:14:34.129Z,61.75
2022-09-16T20:19:36.911Z,62.31
2022-09-16T20:24:39.730Z,61.24
2022-09-16T20:29:42.519Z,52.01
2022-09-16T20:34:45.275Z,56.46
2022-09-16T20:39:48.986Z,59.61
2022-09-16T20:44:51.797Z,61.24
2022-09-16T20:49:54.579Z,60.28
2022-09-16T20:54:57.430Z,57.50
2022-09-16T21:00:00.233Z,59.59
2022-09-16T21:05:05.005Z,61.55
2022-09-16T21:10:08.437Z,61.74
2022-09-16T21:15:12.136Z,55.49
2022-09-16T21:20:14.983Z,58.36
2022-09-16T21:25:17.747Z,60.03
2022-09-16T21:30:20.626Z,61.88
2022-09-16T21:35:23.452Z,56.84
2022-09-16T21:40:26.244Z,60.09
2022-09-16T21:45:29.092Z,62.87
2022-09-16T21:50:31.929Z,57.04
2022-09-16T21:55:34.700Z,58.73
2022-09-16T22:00:40.879Z,62.29
2022-09-16T22:05:43.705Z,60.50
2022-09-16T22:10:46.475Z,54.23
2022-09-16T22:15:52.511Z,58.08
2022-09-16T22:20:58.226Z,60.03
2022-09-16T22:26:06.428Z,62.31
2022-09-16T22:31:15.858Z,55.60
2022-09-16T22:36:21.190Z,58.69
2022-09-16T22:41:25.507Z,62.33
2022-09-16T22:46:31.322Z,58.94
2022-09-16T22:51:34.288Z,57.43
2022-09-16T22:56:37.117Z,60.40
2022-09-16T23:01:40.396Z,62.28
2022-09-16T23:06:43.371Z,57.63
2022-09-16T23:11:46.157Z,58.49
2022-09-16T23:16:49.244Z,59.81
2022-09-16T23:21:51.916Z,64.63
2022-09-16T23:26:54.749Z,56.10
2022-09-16T23:31:57.872Z,58.04
2022-09-16T23:37:00.693Z,61.01
2022-09-16T23:42:03.723Z,63.62
2022-09-16T23:47:07.078Z,54.82
2022-09-16T23:52:10.571Z,57.62
2022-09-16T23:57:13.375Z,59.59
